sensor_id;sensor_type;location;lat;lon;timestamp;temperature;humidity
41547;DHT22;27271;45.412;10.852;2022-07-29T00:01:55;19.60;99.90
41547;DHT22;27271;45.412;10.852;2022-07-29T00:05:17;19.60;99.90
41547;DHT22;27271;45.412;10.852;2022-07-29T00:08:39;19.60;99.90
41547;DHT22;27271;45.412;10.852;2022-07-29T00:12:02;19.70;99.90
41547;DHT22;27271;45.412;10.852;2022-07-29T00:15:24;19.80;99.90
41547;DHT22;27271;45.412;10.852;2022-07-29T00:18:46;19.90;99.90
41547;DHT22;27271;45.412;10.852;2022-07-29T00:22:08;20.10;99.90
41547;DHT22;27271;45.412;10.852;2022-07-29T00:25:30;20.20;99.90
41547;DHT22;27271;45.412;10.852;2022-07-29T00:28:54;20.20;99.90
41547;DHT22;27271;45.412;10.852;2022-07-29T00:32:36;20.10;99.90
41547;DHT22;27271;45.412;10.852;2022-07-29T00:35:58;20.10;99.90
41547;DHT22;27271;45.412;10.852;2022-07-29T00:39:20;20.10;99.90
41547;DHT22;27271;45.412;10.852;2022-07-29T00:42:47;20.20;99.90
41547;DHT22;27271;45.412;10.852;2022-07-29T00:46:10;20.30;99.90
41547;DHT22;27271;45.412;10.852;2022-07-29T00:49:32;20.40;99.90
41547;DHT22;27271;45.412;10.852;2022-07-29T00:52:55;20.40;99.90
41547;DHT22;27271;45.412;10.852;2022-07-29T00:56:17;20.50;99.90
41547;DHT22;27271;45.412;10.852;2022-07-29T00:59:40;20.50;99.90
41547;DHT22;27271;45.412;10.852;2022-07-29T01:03:03;20.40;99.90
41547;DHT22;27271;45.412;10.852;2022-07-29T01:06:26;20.20;99.90
41547;DHT22;27271;45.412;10.852;2022-07-29T01:09:48;20.20;99.90
41547;DHT22;27271;45.412;10.852;2022-07-29T01:13:11;20.10;99.90
41547;DHT22;27271;45.412;10.852;2022-07-29T01:16:51;20.00;99.90
41547;DHT22;27271;45.412;10.852;2022-07-29T01:35:25;19.80;99.90
41547;DHT22;27271;45.412;10.852;2022-07-29T01:38:59;19.70;99.90
41547;DHT22;27271;45.412;10.852;2022-07-29T01:42:34;19.80;99.90
41547;DHT22;27271;45.412;10.852;2022-07-29T01:46:01;19.70;99.90
41547;DHT22;27271;45.412;10.852;2022-07-29T01:49:28;19.60;99.90
41547;DHT22;27271;45.412;10.852;2022-07-29T01:52:56;19.60;99.90
41547;DHT22;27271;45.412;10.852;2022-07-29T01:56:20;19.80;99.90
41547;DHT22;27271;45.412;10.852;2022-07-29T01:59:45;19.90;99.90
41547;DHT22;27271;45.412;10.852;2022-07-29T02:03:11;19.80;99.90
41547;DHT22;27271;45.412;10.852;2022-07-29T02:06:38;19.80;99.90
41547;DHT22;27271;45.412;10.852;2022-07-29T02:10:02;19.70;99.90
41547;DHT22;27271;45.412;10.852;2022-07-29T02:13:27;19.60;99.90
41547;DHT22;27271;45.412;10.852;2022-07-29T02:16:52;19.50;99.90
41547;DHT22;27271;45.412;10.852;2022-07-29T02:20:16;19.50;99.90
41547;DHT22;27271;45.412;10.852;2022-07-29T02:23:38;19.40;99.90
41547;DHT22;27271;45.412;10.852;2022-07-29T02:27:12;19.40;99.90
41547;DHT22;27271;45.412;10.852;2022-07-29T02:30:39;19.40;99.90
41547;DHT22;27271;45.412;10.852;2022-07-29T02:34:03;19.30;99.90
41547;DHT22;27271;45.412;10.852;2022-07-29T02:37:27;19.10;99.90
41547;DHT22;27271;45.412;10.852;2022-07-29T02:40:50;19.10;99.90
41547;DHT22;27271;45.412;10.852;2022-07-29T02:44:16;19.20;99.90
41547;DHT22;27271;45.412;10.852;2022-07-29T02:47:42;19.30;99.90
41547;DHT22;27271;45.412;10.852;2022-07-29T02:51:11;19.30;99.90
41547;DHT22;27271;45.412;10.852;2022-07-29T02:55:05;19.20;99.90
41547;DHT22;27271;45.412;10.852;2022-07-29T02:58:46;19.20;99.90
41547;DHT22;27271;45.412;10.852;2022-07-29T03:02:12;19.20;99.90
41547;DHT22;27271;45.412;10.852;2022-07-29T03:05:36;19.20;99.90
41547;DHT22;27271;45.412;10.852;2022-07-29T03:09:00;19.20;99.90
41547;DHT22;27271;45.412;10.852;2022-07-29T03:12:22;19.20;99.90
41547;DHT22;27271;45.412;10.852;2022-07-29T03:15:47;19.30;99.90
41547;DHT22;27271;45.412;10.852;2022-07-29T03:19:09;19.30;99.90
41547;DHT22;27271;45.412;10.852;2022-07-29T03:22:31;19.20;99.90
41547;DHT22;27271;45.412;10.852;2022-07-29T03:25:55;19.20;99.90
41547;DHT22;27271;45.412;10.852;2022-07-29T03:29:17;19.30;99.90
41547;DHT22;27271;45.412;10.852;2022-07-29T03:32:40;19.40;99.90
41547;DHT22;27271;45.412;10.852;2022-07-29T03:36:05;19.40;99.90
41547;DHT22;27271;45.412;10.852;2022-07-29T03:39:29;19.50;99.90
41547;DHT22;27271;45.412;10.852;2022-07-29T03:42:54;19.50;99.90
41547;DHT22;27271;45.412;10.852;2022-07-29T03:46:17;19.50;99.90
41547;DHT22;27271;45.412;10.852;2022-07-29T03:49:44;19.60;99.90
41547;DHT22;27271;45.412;10.852;2022-07-29T03:53:08;19.70;99.90
41547;DHT22;27271;45.412;10.852;2022-07-29T03:56:35;19.70;99.90
41547;DHT22;27271;45.412;10.852;2022-07-29T04:00:01;19.70;99.90
41547;DHT22;27271;45.412;10.852;2022-07-29T04:03:24;19.60;99.90
41547;DHT22;27271;45.412;10.852;2022-07-29T04:06:47;19.60;99.90
41547;DHT22;27271;45.412;10.852;2022-07-29T04:10:09;19.60;99.90
41547;DHT22;27271;45.412;10.852;2022-07-29T04:13:32;19.80;99.90
41547;DHT22;27271;45.412;10.852;2022-07-29T04:16:54;19.90;99.90
41547;DHT22;27271;45.412;10.852;2022-07-29T04:20:17;20.00;99.90
41547;DHT22;27271;45.412;10.852;2022-07-29T04:23:39;20.00;99.90
41547;DHT22;27271;45.412;10.852;2022-07-29T04:27:14;20.10;99.90
41547;DHT22;27271;45.412;10.852;2022-07-29T04:30:37;20.20;99.90
41547;DHT22;27271;45.412;10.852;2022-07-29T04:33:59;20.30;99.90
41547;DHT22;27271;45.412;10.852;2022-07-29T04:37:21;20.50;99.90
41547;DHT22;27271;45.412;10.852;2022-07-29T04:40:43;20.60;99.90
41547;DHT22;27271;45.412;10.852;2022-07-29T04:44:05;20.80;99.90
41547;DHT22;27271;45.412;10.852;2022-07-29T04:47:29;20.80;99.90
41547;DHT22;27271;45.412;10.852;2022-07-29T04:50:51;20.80;99.90
41547;DHT22;27271;45.412;10.852;2022-07-29T04:54:13;21.00;99.90
41547;DHT22;27271;45.412;10.852;2022-07-29T04:57:36;21.10;99.90
41547;DHT22;27271;45.412;10.852;2022-07-29T05:00:58;21.20;99.90
41547;DHT22;27271;45.412;10.852;2022-07-29T05:04:20;21.50;99.90
41547;DHT22;27271;45.412;10.852;2022-07-29T05:07:42;22.00;99.90
41547;DHT22;27271;45.412;10.852;2022-07-29T05:11:04;22.40;99.90
41547;DHT22;27271;45.412;10.852;2022-07-29T05:14:33;22.80;99.90
41547;DHT22;27271;45.412;10.852;2022-07-29T05:17:55;23.20;99.90
41547;DHT22;27271;45.412;10.852;2022-07-29T05:21:17;23.50;99.90
41547;DHT22;27271;45.412;10.852;2022-07-29T05:24:39;23.70;99.90
41547;DHT22;27271;45.412;10.852;2022-07-29T05:28:02;23.90;99.90
41547;DHT22;27271;45.412;10.852;2022-07-29T05:31:24;24.70;99.90
41547;DHT22;27271;45.412;10.852;2022-07-29T05:34:46;25.60;99.90
41547;DHT22;27271;45.412;10.852;2022-07-29T05:38:12;27.10;99.90
41547;DHT22;27271;45.412;10.852;2022-07-29T05:41:34;28.50;99.90
41547;DHT22;27271;45.412;10.852;2022-07-29T05:44:56;29.60;99.90
41547;DHT22;27271;45.412;10.852;2022-07-29T05:48:18;30.90;94.30
41547;DHT22;27271;45.412;10.852;2022-07-29T05:51:41;31.80;93.60
41547;DHT22;27271;45.412;10.852;2022-07-29T05:55:04;31.80;94.30
41547;DHT22;27271;45.412;10.852;2022-07-29T05:58:28;32.10;90.90
41547;DHT22;27271;45.412;10.852;2022-07-29T06:01:50;32.80;88.70
41547;DHT22;27271;45.412;10.852;2022-07-29T06:05:12;33.70;88.20
41547;DHT22;27271;45.412;10.852;2022-07-29T06:08:38;34.50;80.00
41547;DHT22;27271;45.412;10.852;2022-07-29T06:12:00;35.30;77.00
41547;DHT22;27271;45.412;10.852;2022-07-29T06:15:22;35.60;74.00
41547;DHT22;27271;45.412;10.852;2022-07-29T06:18:45;34.90;74.10
41547;DHT22;27271;45.412;10.852;2022-07-29T06:22:07;34.30;75.40
41547;DHT22;27271;45.412;10.852;2022-07-29T06:25:29;33.50;78.20
41547;DHT22;27271;45.412;10.852;2022-07-29T06:28:51;34.20;74.70
41547;DHT22;27271;45.412;10.852;2022-07-29T06:32:14;33.50;78.60
41547;DHT22;27271;45.412;10.852;2022-07-29T06:35:36;33.10;78.30
41547;DHT22;27271;45.412;10.852;2022-07-29T06:39:05;33.30;81.10
41547;DHT22;27271;45.412;10.852;2022-07-29T06:42:28;34.60;79.10
41547;DHT22;27271;45.412;10.852;2022-07-29T06:45:50;34.20;77.70
41547;DHT22;27271;45.412;10.852;2022-07-29T06:49:12;34.50;77.00
41547;DHT22;27271;45.412;10.852;2022-07-29T06:52:35;33.40;78.40
41547;DHT22;27271;45.412;10.852;2022-07-29T06:56:02;33.00;75.90
41547;DHT22;27271;45.412;10.852;2022-07-29T06:59:25;32.20;78.40
41547;DHT22;27271;45.412;10.852;2022-07-29T07:02:56;31.30;82.00
41547;DHT22;27271;45.412;10.852;2022-07-29T07:06:18;30.70;83.90
41547;DHT22;27271;45.412;10.852;2022-07-29T07:09:40;30.90;84.10
41547;DHT22;27271;45.412;10.852;2022-07-29T07:13:03;32.20;81.70
41547;DHT22;27271;45.412;10.852;2022-07-29T07:16:26;33.60;77.80
41547;DHT22;27271;45.412;10.852;2022-07-29T07:19:48;35.00;74.00
41547;DHT22;27271;45.412;10.852;2022-07-29T07:23:11;36.30;70.60
41547;DHT22;27271;45.412;10.852;2022-07-29T07:26:33;37.30;68.50
41547;DHT22;27271;45.412;10.852;2022-07-29T07:29:55;36.20;68.20
41547;DHT22;27271;45.412;10.852;2022-07-29T07:33:17;36.10;69.70
41547;DHT22;27271;45.412;10.852;2022-07-29T07:36:39;36.60;68.70
41547;DHT22;27271;45.412;10.852;2022-07-29T07:40:02;38.20;66.50
41547;DHT22;27271;45.412;10.852;2022-07-29T07:43:24;39.10;60.30
41547;DHT22;27271;45.412;10.852;2022-07-29T07:46:46;38.70;62.60
41547;DHT22;27271;45.412;10.852;2022-07-29T07:50:10;40.00;58.90
41547;DHT22;27271;45.412;10.852;2022-07-29T07:53:39;40.20;57.60
41547;DHT22;27271;45.412;10.852;2022-07-29T07:57:01;40.10;57.30
41547;DHT22;27271;45.412;10.852;2022-07-29T08:00:23;38.90;59.00
41547;DHT22;27271;45.412;10.852;2022-07-29T08:03:45;37.60;61.40
41547;DHT22;27271;45.412;10.852;2022-07-29T08:07:08;36.80;62.70
41547;DHT22;27271;45.412;10.852;2022-07-29T08:10:30;37.40;60.10
41547;DHT22;27271;45.412;10.852;2022-07-29T08:14:11;37.00;60.00
41547;DHT22;27271;45.412;10.852;2022-07-29T08:17:34;36.40;63.20
41547;DHT22;27271;45.412;10.852;2022-07-29T08:20:57;37.90;60.10
41547;DHT22;27271;45.412;10.852;2022-07-29T08:24:21;38.30;59.30
41547;DHT22;27271;45.412;10.852;2022-07-29T08:28:02;39.10;58.40
41547;DHT22;27271;45.412;10.852;2022-07-29T08:31:24;40.10;55.20
41547;DHT22;27271;45.412;10.852;2022-07-29T08:34:46;41.40;54.30
41547;DHT22;27271;45.412;10.852;2022-07-29T08:38:08;41.20;52.80
41547;DHT22;27271;45.412;10.852;2022-07-29T08:41:31;39.90;53.80
41547;DHT22;27271;45.412;10.852;2022-07-29T08:44:53;40.20;54.90
41547;DHT22;27271;45.412;10.852;2022-07-29T08:48:19;40.00;55.20
41547;DHT22;27271;45.412;10.852;2022-07-29T08:51:43;40.10;54.00
41547;DHT22;27271;45.412;10.852;2022-07-29T08:55:10;39.60;54.50
41547;DHT22;27271;45.412;10.852;2022-07-29T08:58:34;39.20;53.30
41547;DHT22;27271;45.412;10.852;2022-07-29T09:02:03;40.10;53.60
41547;DHT22;27271;45.412;10.852;2022-07-29T09:05:32;40.90;52.10
41547;DHT22;27271;45.412;10.852;2022-07-29T09:09:02;40.30;52.40
41547;DHT22;27271;45.412;10.852;2022-07-29T09:12:26;40.40;54.20
41547;DHT22;27271;45.412;10.852;2022-07-29T09:15:56;39.70;51.20
41547;DHT22;27271;45.412;10.852;2022-07-29T09:19:28;39.10;53.30
41547;DHT22;27271;45.412;10.852;2022-07-29T09:22:52;38.20;53.90
41547;DHT22;27271;45.412;10.852;2022-07-29T09:26:16;37.80;55.20
41547;DHT22;27271;45.412;10.852;2022-07-29T09:29:38;37.30;54.90
41547;DHT22;27271;45.412;10.852;2022-07-29T09:33:02;37.30;55.20
41547;DHT22;27271;45.412;10.852;2022-07-29T09:36:24;36.80;55.60
41547;DHT22;27271;45.412;10.852;2022-07-29T09:39:46;38.30;55.40
41547;DHT22;27271;45.412;10.852;2022-07-29T09:43:12;38.70;54.00
41547;DHT22;27271;45.412;10.852;2022-07-29T09:46:35;38.10;54.40
41547;DHT22;27271;45.412;10.852;2022-07-29T09:49:59;39.10;52.80
41547;DHT22;27271;45.412;10.852;2022-07-29T09:53:35;40.00;51.70
41547;DHT22;27271;45.412;10.852;2022-07-29T09:56:58;40.20;51.40
41547;DHT22;27271;45.412;10.852;2022-07-29T10:00:20;39.20;51.80
41547;DHT22;27271;45.412;10.852;2022-07-29T10:03:51;40.20;51.00
41547;DHT22;27271;45.412;10.852;2022-07-29T10:07:14;40.30;51.10
41547;DHT22;27271;45.412;10.852;2022-07-29T10:10:41;40.50;50.10
41547;DHT22;27271;45.412;10.852;2022-07-29T10:14:04;40.20;51.10
41547;DHT22;27271;45.412;10.852;2022-07-29T10:17:28;40.00;50.20
41547;DHT22;27271;45.412;10.852;2022-07-29T10:20:50;39.90;51.00
41547;DHT22;27271;45.412;10.852;2022-07-29T10:24:13;39.70;52.70
41547;DHT22;27271;45.412;10.852;2022-07-29T10:27:36;39.00;52.40
41547;DHT22;27271;45.412;10.852;2022-07-29T10:31:13;38.40;53.30
41547;DHT22;27271;45.412;10.852;2022-07-29T10:42:19;39.00;51.50
41547;DHT22;27271;45.412;10.852;2022-07-29T10:45:57;38.40;53.10
41547;DHT22;27271;45.412;10.852;2022-07-29T10:49:24;37.90;52.10
41547;DHT22;27271;45.412;10.852;2022-07-29T10:56:30;38.90;53.70
41547;DHT22;27271;45.412;10.852;2022-07-29T11:07:11;38.00;52.50
41547;DHT22;27271;45.412;10.852;2022-07-29T11:10:35;37.80;52.40
41547;DHT22;27271;45.412;10.852;2022-07-29T11:13:59;37.00;53.00
41547;DHT22;27271;45.412;10.852;2022-07-29T11:17:21;36.30;54.50
41547;DHT22;27271;45.412;10.852;2022-07-29T11:20:46;36.00;56.20
41547;DHT22;27271;45.412;10.852;2022-07-29T11:24:28;36.40;56.30
41547;DHT22;27271;45.412;10.852;2022-07-29T11:28:08;36.20;55.40
41547;DHT22;27271;45.412;10.852;2022-07-29T11:38:39;36.50;53.70
41547;DHT22;27271;45.412;10.852;2022-07-29T11:45:53;37.10;52.70
41547;DHT22;27271;45.412;10.852;2022-07-29T11:49:26;37.30;53.80
41547;DHT22;27271;45.412;10.852;2022-07-29T11:52:53;36.90;54.10
41547;DHT22;27271;45.412;10.852;2022-07-29T11:56:20;36.60;56.20
41547;DHT22;27271;45.412;10.852;2022-07-29T11:59:47;36.40;54.10
41547;DHT22;27271;45.412;10.852;2022-07-29T12:03:10;36.20;56.50
41547;DHT22;27271;45.412;10.852;2022-07-29T12:06:34;36.50;55.20
41547;DHT22;27271;45.412;10.852;2022-07-29T12:09:56;36.90;54.30
41547;DHT22;27271;45.412;10.852;2022-07-29T12:13:20;36.90;55.40
41547;DHT22;27271;45.412;10.852;2022-07-29T12:16:42;36.90;54.10
41547;DHT22;27271;45.412;10.852;2022-07-29T12:20:05;37.00;54.10
41547;DHT22;27271;45.412;10.852;2022-07-29T12:23:29;36.90;55.70
41547;DHT22;27271;45.412;10.852;2022-07-29T12:26:57;36.70;54.70
41547;DHT22;27271;45.412;10.852;2022-07-29T12:30:19;35.90;56.40
41547;DHT22;27271;45.412;10.852;2022-07-29T12:33:52;35.20;56.70
41547;DHT22;27271;45.412;10.852;2022-07-29T12:37:15;35.40;57.90
41547;DHT22;27271;45.412;10.852;2022-07-29T12:40:38;35.20;56.20
41547;DHT22;27271;45.412;10.852;2022-07-29T12:44:00;35.80;55.90
41547;DHT22;27271;45.412;10.852;2022-07-29T12:47:23;35.90;56.10
41547;DHT22;27271;45.412;10.852;2022-07-29T12:50:56;36.10;55.40
41547;DHT22;27271;45.412;10.852;2022-07-29T12:54:19;35.50;58.00
41547;DHT22;27271;45.412;10.852;2022-07-29T12:57:46;35.50;58.70
41547;DHT22;27271;45.412;10.852;2022-07-29T13:04:38;36.00;56.20
41547;DHT22;27271;45.412;10.852;2022-07-29T13:08:13;36.40;56.10
41547;DHT22;27271;45.412;10.852;2022-07-29T13:11:47;35.70;57.10
41547;DHT22;27271;45.412;10.852;2022-07-29T13:15:14;35.50;57.90
41547;DHT22;27271;45.412;10.852;2022-07-29T13:18:36;35.30;56.90
41547;DHT22;27271;45.412;10.852;2022-07-29T13:21:58;35.50;56.50
41547;DHT22;27271;45.412;10.852;2022-07-29T13:25:30;35.90;55.10
41547;DHT22;27271;45.412;10.852;2022-07-29T13:28:52;36.10;54.50
41547;DHT22;27271;45.412;10.852;2022-07-29T13:32:14;36.60;55.30
41547;DHT22;27271;45.412;10.852;2022-07-29T13:35:36;36.10;56.50
41547;DHT22;27271;45.412;10.852;2022-07-29T13:39:00;35.80;56.70
41547;DHT22;27271;45.412;10.852;2022-07-29T13:42:24;36.20;55.00
41547;DHT22;27271;45.412;10.852;2022-07-29T13:45:46;35.50;55.80
41547;DHT22;27271;45.412;10.852;2022-07-29T13:49:08;35.40;55.80
41547;DHT22;27271;45.412;10.852;2022-07-29T13:52:33;35.50;55.60
41547;DHT22;27271;45.412;10.852;2022-07-29T13:55:55;35.60;56.10
41547;DHT22;27271;45.412;10.852;2022-07-29T13:59:18;35.30;55.80
41547;DHT22;27271;45.412;10.852;2022-07-29T14:02:41;35.00;56.00
41547;DHT22;27271;45.412;10.852;2022-07-29T14:06:03;34.20;56.80
41547;DHT22;27271;45.412;10.852;2022-07-29T14:09:25;34.00;59.60
41547;DHT22;27271;45.412;10.852;2022-07-29T14:12:47;34.20;56.70
41547;DHT22;27271;45.412;10.852;2022-07-29T14:16:09;34.30;58.10
41547;DHT22;27271;45.412;10.852;2022-07-29T14:19:32;34.30;58.10
41547;DHT22;27271;45.412;10.852;2022-07-29T14:22:57;34.50;56.40
41547;DHT22;27271;45.412;10.852;2022-07-29T14:26:19;34.50;56.10
41547;DHT22;27271;45.412;10.852;2022-07-29T14:29:45;34.20;57.30
41547;DHT22;27271;45.412;10.852;2022-07-29T14:33:07;33.90;57.10
41547;DHT22;27271;45.412;10.852;2022-07-29T14:36:29;33.80;57.50
41547;DHT22;27271;45.412;10.852;2022-07-29T14:39:51;33.70;58.10
41547;DHT22;27271;45.412;10.852;2022-07-29T14:43:14;33.50;58.40
41547;DHT22;27271;45.412;10.852;2022-07-29T14:46:36;33.00;58.40
41547;DHT22;27271;45.412;10.852;2022-07-29T14:49:58;32.80;59.20
41547;DHT22;27271;45.412;10.852;2022-07-29T14:53:20;32.80;59.60
41547;DHT22;27271;45.412;10.852;2022-07-29T14:56:42;32.60;58.30
41547;DHT22;27271;45.412;10.852;2022-07-29T15:00:08;32.10;59.00
41547;DHT22;27271;45.412;10.852;2022-07-29T15:03:31;32.00;59.30
41547;DHT22;27271;45.412;10.852;2022-07-29T15:06:54;32.00;60.20
41547;DHT22;27271;45.412;10.852;2022-07-29T15:10:17;31.90;60.20
41547;DHT22;27271;45.412;10.852;2022-07-29T15:13:39;31.70;60.30
41547;DHT22;27271;45.412;10.852;2022-07-29T15:17:02;31.50;61.20
41547;DHT22;27271;45.412;10.852;2022-07-29T15:20:25;31.50;61.50
41547;DHT22;27271;45.412;10.852;2022-07-29T15:23:48;31.60;61.60
41547;DHT22;27271;45.412;10.852;2022-07-29T15:27:10;31.60;62.80
41547;DHT22;27271;45.412;10.852;2022-07-29T15:30:35;31.70;62.60
41547;DHT22;27271;45.412;10.852;2022-07-29T15:34:02;31.70;62.80
41547;DHT22;27271;45.412;10.852;2022-07-29T15:37:27;31.60;62.10
41547;DHT22;27271;45.412;10.852;2022-07-29T15:41:13;31.50;61.80
41547;DHT22;27271;45.412;10.852;2022-07-29T15:44:36;31.40;63.50
41547;DHT22;27271;45.412;10.852;2022-07-29T15:47:58;31.30;64.10
41547;DHT22;27271;45.412;10.852;2022-07-29T15:51:20;31.30;63.80
41547;DHT22;27271;45.412;10.852;2022-07-29T15:54:42;31.20;64.50
41547;DHT22;27271;45.412;10.852;2022-07-29T15:58:05;31.00;65.60
41547;DHT22;27271;45.412;10.852;2022-07-29T16:01:27;30.90;66.80
41547;DHT22;27271;45.412;10.852;2022-07-29T16:04:49;30.70;68.40
41547;DHT22;27271;45.412;10.852;2022-07-29T16:08:11;30.30;71.40
41547;DHT22;27271;45.412;10.852;2022-07-29T16:11:33;29.90;76.60
41547;DHT22;27271;45.412;10.852;2022-07-29T16:14:55;29.30;82.80
41547;DHT22;27271;45.412;10.852;2022-07-29T16:18:17;28.80;86.20
41547;DHT22;27271;45.412;10.852;2022-07-29T16:21:40;28.50;92.80
41547;DHT22;27271;45.412;10.852;2022-07-29T16:25:02;28.10;96.70
41547;DHT22;27271;45.412;10.852;2022-07-29T16:28:24;27.90;99.90
41547;DHT22;27271;45.412;10.852;2022-07-29T16:31:49;27.70;99.90
41547;DHT22;27271;45.412;10.852;2022-07-29T16:35:11;27.50;99.90
41547;DHT22;27271;45.412;10.852;2022-07-29T16:38:33;27.30;99.90
41547;DHT22;27271;45.412;10.852;2022-07-29T16:41:56;27.00;99.90
41547;DHT22;27271;45.412;10.852;2022-07-29T16:45:22;26.80;99.90
41547;DHT22;27271;45.412;10.852;2022-07-29T16:48:44;26.70;99.90
41547;DHT22;27271;45.412;10.852;2022-07-29T16:52:06;26.50;99.90
41547;DHT22;27271;45.412;10.852;2022-07-29T16:55:29;26.30;99.90
41547;DHT22;27271;45.412;10.852;2022-07-29T16:58:51;26.10;99.90
41547;DHT22;27271;45.412;10.852;2022-07-29T17:02:13;25.90;99.90
41547;DHT22;27271;45.412;10.852;2022-07-29T17:05:35;25.70;99.90
41547;DHT22;27271;45.412;10.852;2022-07-29T17:09:15;25.50;99.90
41547;DHT22;27271;45.412;10.852;2022-07-29T17:12:39;25.40;99.90
41547;DHT22;27271;45.412;10.852;2022-07-29T17:16:01;25.30;99.90
41547;DHT22;27271;45.412;10.852;2022-07-29T17:19:23;25.10;99.90
41547;DHT22;27271;45.412;10.852;2022-07-29T17:22:45;24.90;99.90
41547;DHT22;27271;45.412;10.852;2022-07-29T17:26:07;24.90;99.90
41547;DHT22;27271;45.412;10.852;2022-07-29T17:29:30;24.80;99.90
41547;DHT22;27271;45.412;10.852;2022-07-29T17:32:52;24.80;99.90
41547;DHT22;27271;45.412;10.852;2022-07-29T17:36:15;24.60;99.90
41547;DHT22;27271;45.412;10.852;2022-07-29T17:39:47;24.20;99.90
41547;DHT22;27271;45.412;10.852;2022-07-29T17:43:09;24.00;99.90
41547;DHT22;27271;45.412;10.852;2022-07-29T17:46:31;23.90;99.90
41547;DHT22;27271;45.412;10.852;2022-07-29T17:49:54;23.80;99.90
41547;DHT22;27271;45.412;10.852;2022-07-29T17:53:16;23.80;99.90
41547;DHT22;27271;45.412;10.852;2022-07-29T17:56:38;23.70;99.90
41547;DHT22;27271;45.412;10.852;2022-07-29T18:00:00;23.70;99.90
41547;DHT22;27271;45.412;10.852;2022-07-29T18:03:25;23.60;99.90
41547;DHT22;27271;45.412;10.852;2022-07-29T18:06:47;23.60;99.90
41547;DHT22;27271;45.412;10.852;2022-07-29T18:10:09;23.60;99.90
41547;DHT22;27271;45.412;10.852;2022-07-29T18:13:32;23.60;99.90
41547;DHT22;27271;45.412;10.852;2022-07-29T18:16:54;23.60;99.90
41547;DHT22;27271;45.412;10.852;2022-07-29T18:20:16;23.60;99.90
41547;DHT22;27271;45.412;10.852;2022-07-29T18:23:39;23.60;99.90
41547;DHT22;27271;45.412;10.852;2022-07-29T18:27:01;23.70;99.90
41547;DHT22;27271;45.412;10.852;2022-07-29T18:30:23;23.80;99.90
41547;DHT22;27271;45.412;10.852;2022-07-29T18:33:45;23.90;99.90
41547;DHT22;27271;45.412;10.852;2022-07-29T18:37:08;24.00;99.90
41547;DHT22;27271;45.412;10.852;2022-07-29T18:40:30;24.10;99.90
41547;DHT22;27271;45.412;10.852;2022-07-29T18:43:52;24.20;99.90
41547;DHT22;27271;45.412;10.852;2022-07-29T18:47:15;24.20;99.90
41547;DHT22;27271;45.412;10.852;2022-07-29T18:50:38;24.20;99.90
41547;DHT22;27271;45.412;10.852;2022-07-29T18:54:00;24.10;99.90
41547;DHT22;27271;45.412;10.852;2022-07-29T18:57:22;24.10;99.90
41547;DHT22;27271;45.412;10.852;2022-07-29T19:01:04;24.00;99.90
41547;DHT22;27271;45.412;10.852;2022-07-29T19:04:27;24.00;99.90
41547;DHT22;27271;45.412;10.852;2022-07-29T19:07:49;24.00;99.90
41547;DHT22;27271;45.412;10.852;2022-07-29T19:11:11;24.00;99.90
41547;DHT22;27271;45.412;10.852;2022-07-29T19:14:36;24.00;99.90
41547;DHT22;27271;45.412;10.852;2022-07-29T19:17:58;24.00;99.90
41547;DHT22;27271;45.412;10.852;2022-07-29T19:21:22;24.00;99.90
41547;DHT22;27271;45.412;10.852;2022-07-29T19:24:45;23.90;99.90
41547;DHT22;27271;45.412;10.852;2022-07-29T19:28:07;23.90;99.90
41547;DHT22;27271;45.412;10.852;2022-07-29T19:31:29;23.80;99.90
41547;DHT22;27271;45.412;10.852;2022-07-29T19:34:52;23.70;99.90
41547;DHT22;27271;45.412;10.852;2022-07-29T19:38:33;23.40;99.90
41547;DHT22;27271;45.412;10.852;2022-07-29T19:41:55;23.20;99.90
41547;DHT22;27271;45.412;10.852;2022-07-29T19:45:24;23.00;99.90
41547;DHT22;27271;45.412;10.852;2022-07-29T19:48:47;22.90;99.90
41547;DHT22;27271;45.412;10.852;2022-07-29T19:52:09;22.80;99.90
41547;DHT22;27271;45.412;10.852;2022-07-29T19:55:31;22.90;99.90
41547;DHT22;27271;45.412;10.852;2022-07-29T19:58:53;22.80;99.90
41547;DHT22;27271;45.412;10.852;2022-07-29T20:02:15;22.90;99.90
41547;DHT22;27271;45.412;10.852;2022-07-29T20:05:38;22.80;99.90
41547;DHT22;27271;45.412;10.852;2022-07-29T20:09:00;22.70;99.90
41547;DHT22;27271;45.412;10.852;2022-07-29T20:12:22;22.60;99.90
41547;DHT22;27271;45.412;10.852;2022-07-29T20:15:44;22.50;99.90
41547;DHT22;27271;45.412;10.852;2022-07-29T20:19:08;22.40;99.90
41547;DHT22;27271;45.412;10.852;2022-07-29T20:22:30;22.20;99.90
41547;DHT22;27271;45.412;10.852;2022-07-29T20:25:52;22.10;99.90
41547;DHT22;27271;45.412;10.852;2022-07-29T20:29:16;22.10;99.90
41547;DHT22;27271;45.412;10.852;2022-07-29T20:32:39;21.90;99.90
41547;DHT22;27271;45.412;10.852;2022-07-29T20:36:01;21.80;99.90
41547;DHT22;27271;45.412;10.852;2022-07-29T20:39:23;21.70;99.90
41547;DHT22;27271;45.412;10.852;2022-07-29T20:42:45;21.70;99.90
41547;DHT22;27271;45.412;10.852;2022-07-29T20:46:07;21.60;99.90
41547;DHT22;27271;45.412;10.852;2022-07-29T20:49:29;21.50;99.90
41547;DHT22;27271;45.412;10.852;2022-07-29T20:52:51;21.60;99.90
41547;DHT22;27271;45.412;10.852;2022-07-29T20:56:14;21.60;99.90
41547;DHT22;27271;45.412;10.852;2022-07-29T20:59:36;21.70;99.90
41547;DHT22;27271;45.412;10.852;2022-07-29T21:03:01;21.60;99.90
41547;DHT22;27271;45.412;10.852;2022-07-29T21:06:25;21.40;99.90
41547;DHT22;27271;45.412;10.852;2022-07-29T21:09:47;21.30;99.90
41547;DHT22;27271;45.412;10.852;2022-07-29T21:13:09;21.20;99.90
41547;DHT22;27271;45.412;10.852;2022-07-29T21:16:31;21.30;99.90
41547;DHT22;27271;45.412;10.852;2022-07-29T21:19:54;21.10;99.90
41547;DHT22;27271;45.412;10.852;2022-07-29T21:23:16;21.10;99.90
41547;DHT22;27271;45.412;10.852;2022-07-29T21:26:38;21.00;99.90
41547;DHT22;27271;45.412;10.852;2022-07-29T21:30:00;20.90;99.90
41547;DHT22;27271;45.412;10.852;2022-07-29T21:33:23;20.90;99.90
41547;DHT22;27271;45.412;10.852;2022-07-29T21:36:45;20.90;99.90
41547;DHT22;27271;45.412;10.852;2022-07-29T21:40:10;20.90;99.90
41547;DHT22;27271;45.412;10.852;2022-07-29T21:43:32;20.90;99.90
41547;DHT22;27271;45.412;10.852;2022-07-29T21:46:54;20.80;99.90
41547;DHT22;27271;45.412;10.852;2022-07-29T21:50:16;20.90;99.90
41547;DHT22;27271;45.412;10.852;2022-07-29T21:53:39;20.90;99.90
41547;DHT22;27271;45.412;10.852;2022-07-29T21:57:01;20.90;99.90